KDAL/DAL METAR and TAF weather

Enter ICAO airport designator
Station Type Date Time Source
KDAL METAR 2019/12/12 11:53 UTC NOAA

KDAL 121153Z 13004KT 10SM BKN300 04/00 A3033 RMK AO2 SLP272 T00440000 10067 20044 55002 $


Station Type Date Time Source
KDAL Decoded METAR 2019/12/12 11:53 UTC NOAA

DALLAS LOVE FIELD, TX, United States (KDAL) 32-51N 096-51W 158M
Dec 12, 2019 - 06:53 AM EST / 2019.12.12 1153 UTC
Wind: from the SE (130 degrees) at 5 MPH (4 KT):0
Visibility: 10 mile(s):0
Sky conditions: mostly cloudy
Temperature: 39.9 F (4.4 C)
Dew Point: 32.0 F (0.0 C)
Relative Humidity: 73%
Pressure (altimeter): 30.33 in. Hg (1027 hPa)
Pressure tendency: 0.01 inches (0.2 hPa) lower than three hours ago
ob: KDAL 121153Z 13004KT 10SM BKN300 04/00 A3033 RMK AO2 SLP272 T00440000 10067 20044 55002
cycle: 12

Station Type Date Time Source
KDAL TAF 2019/12/12 12:22 UTC NOAA

TAF KDAL 121120Z 1212/1312 16008KT P6SM BKN300

Example: see airport list